createdAt,value
2023-03-05T00:02:22.874Z,2.35
2023-03-05T00:05:09.327Z,2.37
2023-03-05T00:07:55.254Z,2.32
2023-03-05T00:10:40.906Z,2.33
2023-03-05T00:13:26.585Z,2.32
2023-03-05T00:16:14.857Z,2.33
2023-03-05T00:19:01.660Z,2.31
2023-03-05T00:21:47.636Z,2.34
2023-03-05T00:24:34.189Z,2.30
2023-03-05T00:27:20.274Z,2.26
2023-03-05T00:30:07.161Z,2.28
2023-03-05T00:32:54.573Z,2.27
2023-03-05T00:35:41.108Z,2.28
2023-03-05T00:38:26.855Z,2.23
2023-03-05T00:41:12.774Z,2.23
2023-03-05T00:43:58.477Z,2.23
2023-03-05T00:46:44.246Z,2.23
2023-03-05T00:49:31.849Z,2.19
2023-03-05T00:52:17.534Z,2.19
2023-03-05T00:55:03.310Z,2.19
2023-03-05T00:57:49.050Z,2.18
2023-03-05T01:00:35.323Z,2.20
2023-03-05T01:03:21.119Z,2.19
2023-03-05T01:06:10.276Z,2.18
2023-03-05T01:08:56.400Z,2.16
2023-03-05T01:11:42.794Z,2.17
2023-03-05T01:14:28.702Z,2.16
2023-03-05T01:17:14.494Z,2.16
2023-03-05T01:20:00.387Z,2.13
2023-03-05T01:22:47.908Z,2.15
2023-03-05T01:25:33.610Z,2.10
2023-03-05T01:28:19.448Z,2.12
2023-03-05T01:31:08.026Z,2.09
2023-03-05T01:33:53.991Z,2.12
2023-03-05T01:36:41.404Z,2.09
2023-03-05T01:39:28.582Z,2.06
2023-03-05T01:42:14.347Z,2.08
2023-03-05T01:45:01.244Z,2.06
2023-03-05T01:47:46.958Z,2.08
2023-03-05T01:50:32.838Z,2.06
2023-03-05T01:53:18.575Z,2.06
2023-03-05T01:56:06.306Z,2.10
2023-03-05T01:58:52.531Z,2.10
2023-03-05T02:01:39.777Z,2.10
2023-03-05T02:04:27.637Z,2.11
2023-03-05T02:07:13.846Z,2.09
2023-03-05T02:09:59.790Z,2.12
2023-03-05T02:12:46.758Z,2.11
2023-03-05T02:15:32.919Z,2.13
2023-03-05T02:18:19.627Z,2.16
2023-03-05T02:21:07.051Z,2.16
2023-03-05T02:23:52.987Z,2.13
2023-03-05T02:26:40.486Z,2.16
2023-03-05T02:29:26.739Z,2.18
2023-03-05T02:32:13.034Z,2.20
2023-03-05T02:34:59.289Z,2.18
2023-03-05T02:37:47.898Z,2.22
2023-03-05T02:40:33.675Z,2.23
2023-03-05T02:43:19.461Z,2.23
2023-03-05T02:46:05.468Z,2.24
2023-03-05T02:48:51.575Z,2.27
2023-03-05T02:51:37.448Z,2.27
2023-03-05T02:54:24.486Z,2.27
2023-03-05T02:57:10.277Z,2.27
2023-03-05T02:59:56.219Z,2.25
2023-03-05T03:02:42.730Z,2.27
2023-03-05T03:05:29.000Z,2.27
2023-03-05T03:08:15.079Z,2.26
2023-03-05T03:11:06.528Z,2.25
2023-03-05T03:13:52.495Z,2.25
2023-03-05T03:16:38.378Z,2.27
2023-03-05T03:19:24.183Z,2.24
2023-03-05T03:22:10.493Z,2.27
2023-03-05T03:24:56.928Z,2.25
2023-03-05T03:27:44.207Z,2.17
2023-03-05T03:30:30.053Z,2.19
2023-03-05T03:33:17.997Z,2.21
2023-03-05T03:36:04.568Z,2.19
2023-03-05T03:38:50.659Z,2.16
2023-03-05T03:41:36.685Z,2.15
2023-03-05T03:44:23.870Z,2.13
2023-03-05T03:47:09.851Z,2.14
2023-03-05T03:49:55.781Z,2.13
2023-03-05T03:52:41.646Z,2.13
2023-03-05T03:55:27.440Z,2.11
2023-03-05T03:58:13.184Z,2.15
2023-03-05T04:01:00.147Z,2.15
2023-03-05T04:03:46.586Z,2.13
2023-03-05T04:06:32.477Z,2.08
2023-03-05T04:09:18.322Z,2.11
2023-03-05T04:12:04.305Z,2.08
2023-03-05T04:14:50.168Z,2.07
2023-03-05T04:17:37.633Z,2.02
2023-03-05T04:20:23.408Z,2.02
2023-03-05T04:23:09.444Z,1.97
2023-03-05T04:25:55.148Z,1.99
2023-03-05T04:28:41.472Z,2.00
2023-03-05T04:31:27.152Z,1.99
2023-03-05T04:34:14.292Z,2.02
2023-03-05T04:37:00.096Z,2.02
2023-03-05T04:39:45.879Z,2.00
2023-03-05T04:42:31.914Z,2.02
2023-03-05T04:45:18.003Z,2.00
2023-03-05T04:48:03.717Z,1.98
2023-03-05T04:50:50.829Z,2.01
2023-03-05T04:53:36.564Z,2.00
2023-03-05T04:56:22.246Z,1.98
2023-03-05T04:59:07.937Z,1.97
2023-03-05T05:01:53.775Z,1.97
2023-03-05T05:04:40.385Z,1.98
2023-03-05T05:07:27.420Z,2.02
2023-03-05T05:10:13.764Z,1.97
2023-03-05T05:13:00.009Z,1.99
2023-03-05T05:15:45.881Z,2.00
2023-03-05T05:18:32.230Z,1.97
2023-03-05T05:21:18.614Z,1.94
2023-03-05T05:24:05.956Z,1.94
2023-03-05T05:26:52.224Z,1.90
2023-03-05T05:29:38.155Z,1.92
2023-03-05T05:32:24.803Z,1.91
2023-03-05T05:35:11.401Z,1.92
2023-03-05T05:37:57.435Z,1.94
2023-03-05T05:40:44.777Z,1.91
2023-03-05T05:43:30.906Z,1.88
2023-03-05T05:46:17.352Z,1.93
2023-03-05T05:49:03.368Z,1.92
2023-03-05T05:51:49.209Z,1.95
2023-03-05T05:54:34.940Z,1.95
2023-03-05T05:57:22.404Z,1.93
2023-03-05T06:00:09.176Z,1.94
2023-03-05T06:02:57.416Z,1.96
2023-03-05T06:05:43.933Z,1.96
2023-03-05T06:08:29.949Z,1.94
2023-03-05T06:11:19.437Z,1.96
2023-03-05T06:14:07.620Z,1.98
2023-03-05T06:16:53.712Z,2.01
2023-03-05T06:19:39.867Z,1.99
2023-03-05T06:22:25.570Z,2.01
2023-03-05T06:25:11.487Z,2.03
2023-03-05T06:27:57.122Z,2.03
2023-03-05T06:30:44.187Z,1.99
2023-03-05T06:33:29.986Z,2.05
2023-03-05T06:36:16.660Z,2.08
2023-03-05T06:39:03.507Z,2.09
2023-03-05T06:41:51.628Z,2.13
2023-03-05T06:44:38.830Z,2.16
2023-03-05T06:47:26.131Z,2.15
2023-03-05T06:50:12.564Z,2.18
2023-03-05T06:52:58.363Z,2.20
2023-03-05T06:55:44.005Z,2.26
2023-03-05T06:58:29.810Z,2.29
2023-03-05T07:01:15.763Z,2.31
2023-03-05T07:04:03.882Z,2.31
2023-03-05T07:06:49.991Z,2.33
2023-03-05T07:09:35.716Z,2.38
2023-03-05T07:12:21.614Z,2.42
2023-03-05T07:15:08.516Z,2.45
2023-03-05T07:17:54.335Z,2.46
2023-03-05T07:20:41.370Z,2.50
2023-03-05T07:23:27.481Z,2.53
2023-03-05T07:26:13.354Z,2.51
2023-03-05T07:28:59.411Z,2.54
2023-03-05T07:31:45.187Z,2.59
2023-03-05T07:34:30.923Z,2.60
2023-03-05T07:37:18.104Z,2.59
2023-03-05T07:40:04.670Z,2.63
2023-03-05T07:42:50.745Z,2.65
2023-03-05T07:45:47.289Z,2.71
2023-03-05T07:48:33.240Z,2.72
2023-03-05T07:51:20.018Z,2.79
2023-03-05T07:54:07.593Z,2.78
2023-03-05T07:56:53.808Z,2.82
2023-03-05T07:59:40.072Z,2.87
2023-03-05T08:02:26.052Z,2.94
2023-03-05T08:05:11.787Z,2.98
2023-03-05T08:07:57.621Z,3.08
2023-03-05T08:10:44.777Z,3.13
2023-03-05T08:13:30.562Z,3.26
2023-03-05T08:16:17.185Z,3.30
2023-03-05T08:19:03.138Z,3.35
2023-03-05T08:21:49.093Z,3.41
2023-03-05T08:24:35.584Z,3.44
2023-03-05T08:27:22.869Z,3.45
2023-03-05T08:30:11.602Z,3.51
2023-03-05T08:32:57.892Z,3.50
2023-03-05T08:35:43.981Z,3.55
2023-03-05T08:38:29.634Z,3.64
2023-03-05T08:41:15.473Z,3.66
2023-03-05T08:44:02.813Z,3.67
2023-03-05T08:46:48.842Z,3.70
2023-03-05T08:49:35.037Z,3.74
2023-03-05T08:52:20.870Z,3.74
2023-03-05T08:55:06.999Z,3.78
2023-03-05T08:57:52.660Z,3.84
2023-03-05T09:00:39.878Z,3.88
2023-03-05T09:03:25.930Z,3.87
2023-03-05T09:06:12.375Z,3.99
2023-03-05T09:08:58.047Z,3.94
2023-03-05T09:11:43.641Z,4.04
2023-03-05T09:14:29.558Z,4.13
2023-03-05T09:17:16.635Z,4.14
2023-03-05T09:20:02.712Z,4.25
2023-03-05T09:22:48.602Z,4.34
2023-03-05T09:25:34.346Z,4.38
2023-03-05T09:28:20.034Z,4.47
2023-03-05T09:31:06.304Z,4.43
2023-03-05T09:33:53.746Z,4.58
2023-03-05T09:36:39.488Z,4.72
2023-03-05T09:39:25.201Z,4.78
2023-03-05T09:42:15.975Z,4.88
2023-03-05T09:45:04.669Z,5.11
2023-03-05T09:47:52.572Z,5.30
2023-03-05T09:50:41.279Z,5.58
2023-03-05T09:53:31.102Z,5.75
2023-03-05T09:56:17.891Z,5.88
2023-03-05T09:59:04.589Z,6.03
2023-03-05T10:01:50.554Z,6.13
2023-03-05T10:04:39.875Z,6.20
2023-03-05T10:07:27.286Z,6.27
2023-03-05T10:10:14.167Z,6.44
2023-03-05T10:13:00.693Z,6.47
2023-03-05T10:15:51.875Z,6.47
2023-03-05T10:18:38.384Z,6.45
2023-03-05T10:21:25.861Z,6.41
2023-03-05T10:24:14.767Z,6.33
2023-03-05T10:27:01.614Z,6.28
2023-03-05T10:29:51.989Z,6.35
2023-03-05T10:32:41.255Z,6.32
2023-03-05T10:35:35.004Z,6.26
2023-03-05T10:38:27.018Z,6.27
2023-03-05T10:41:16.880Z,6.09
2023-03-05T10:44:04.900Z,5.93
2023-03-05T10:46:51.196Z,5.91
2023-03-05T10:49:37.763Z,5.95
2023-03-05T10:52:24.859Z,5.91
2023-03-05T10:55:14.215Z,6.00
2023-03-05T10:58:01.575Z,6.07
2023-03-05T11:01:00.587Z,5.95
2023-03-05T11:03:48.468Z,5.82
2023-03-05T11:06:35.407Z,5.75
2023-03-05T11:09:24.050Z,5.90
2023-03-05T11:12:12.123Z,5.86
2023-03-05T11:15:07.221Z,6.00
2023-03-05T11:18:05.331Z,6.20
2023-03-05T11:20:52.035Z,6.72
2023-03-05T11:23:38.098Z,7.02
2023-03-05T11:26:23.972Z,7.43
2023-03-05T11:29:14.631Z,7.96
2023-03-05T11:32:17.247Z,8.36
2023-03-05T11:35:03.266Z,8.32
2023-03-05T11:37:49.181Z,8.24
2023-03-05T11:40:36.580Z,8.12
2023-03-05T11:43:22.843Z,8.00
2023-03-05T11:46:08.844Z,7.84
2023-03-05T11:48:55.896Z,7.76
2023-03-05T11:51:43.032Z,7.54
2023-03-05T11:54:31.502Z,7.42
2023-03-05T11:57:17.410Z,7.41
2023-03-05T12:00:03.506Z,7.28
2023-03-05T12:02:50.864Z,7.36
2023-03-05T12:05:38.097Z,7.23
2023-03-05T12:08:26.160Z,7.20
2023-03-05T12:11:14.754Z,7.23
2023-03-05T12:14:03.548Z,7.34
2023-03-05T12:16:49.792Z,7.44
2023-03-05T12:19:38.820Z,7.60
2023-03-05T12:22:26.453Z,7.57
2023-03-05T12:25:24.972Z,7.54
2023-03-05T12:28:11.869Z,7.49
2023-03-05T12:30:58.591Z,7.36
2023-03-05T12:33:44.599Z,7.33
2023-03-05T12:36:34.896Z,7.26
2023-03-05T12:39:39.424Z,7.30
2023-03-05T12:42:45.710Z,7.27
2023-03-05T12:45:32.374Z,7.45
2023-03-05T12:48:37.579Z,7.46
2023-03-05T12:51:34.159Z,7.81
2023-03-05T12:54:24.376Z,8.13
2023-03-05T12:57:16.302Z,8.34
2023-03-05T13:00:06.094Z,8.73
2023-03-05T13:02:55.754Z,8.76
2023-03-05T13:05:48.050Z,9.00
2023-03-05T13:08:35.459Z,9.01
2023-03-05T13:11:21.975Z,8.97
2023-03-05T13:14:18.310Z,8.66
2023-03-05T13:17:25.018Z,8.40
2023-03-05T13:20:27.960Z,8.13
2023-03-05T13:23:19.727Z,8.21
2023-03-05T13:26:11.906Z,8.09
2023-03-05T13:29:08.146Z,8.09
2023-03-05T13:31:55.338Z,7.93
2023-03-05T13:34:47.693Z,7.61
2023-03-05T13:37:34.707Z,7.70
2023-03-05T13:40:22.835Z,7.80
2023-03-05T13:43:13.406Z,7.82
2023-03-05T13:45:59.564Z,7.78
2023-03-05T13:48:45.740Z,7.67
2023-03-05T13:51:43.610Z,7.44
2023-03-05T13:54:29.573Z,7.42
2023-03-05T13:57:32.017Z,7.52
2023-03-05T14:00:33.290Z,7.57
2023-03-05T14:03:22.981Z,7.49
2023-03-05T14:06:09.866Z,7.53
2023-03-05T14:09:00.898Z,7.46
2023-03-05T14:11:52.708Z,7.53
2023-03-05T14:14:39.232Z,7.59
2023-03-05T14:17:32.078Z,7.64
2023-03-05T14:20:21.427Z,7.74
2023-03-05T14:23:26.754Z,7.67
2023-03-05T14:26:27.526Z,7.72
2023-03-05T14:29:14.841Z,7.74
2023-03-05T14:32:01.406Z,7.72
2023-03-05T14:34:48.175Z,7.71
2023-03-05T14:37:35.505Z,7.64
2023-03-05T14:40:22.366Z,7.64
2023-03-05T14:43:11.345Z,7.58
2023-03-05T14:45:57.177Z,7.68
2023-03-05T14:48:43.479Z,7.67
2023-03-05T14:51:29.228Z,7.72
2023-03-05T14:54:19.315Z,7.67
2023-03-05T14:57:05.981Z,7.66
2023-03-05T14:59:53.061Z,7.57
2023-03-05T15:02:38.957Z,7.63
2023-03-05T15:05:24.923Z,7.52
2023-03-05T15:08:13.666Z,7.51
2023-03-05T15:10:59.410Z,7.44
2023-03-05T15:13:45.287Z,7.32
2023-03-05T15:16:33.089Z,7.25
2023-03-05T15:19:19.393Z,7.27
2023-03-05T15:22:05.433Z,7.15
2023-03-05T15:24:51.130Z,7.18
2023-03-05T15:27:37.001Z,7.04
2023-03-05T15:30:23.927Z,6.99
2023-03-05T15:33:11.768Z,6.94
2023-03-05T15:35:58.077Z,6.88
2023-03-05T15:38:46.572Z,6.84
2023-03-05T15:41:32.354Z,6.79
2023-03-05T15:44:18.198Z,6.72
2023-03-05T15:47:04.020Z,6.66
2023-03-05T15:49:51.004Z,6.61
2023-03-05T15:52:36.817Z,6.55
2023-03-05T15:55:22.547Z,6.58
2023-03-05T15:58:08.286Z,6.43
2023-03-05T16:00:54.114Z,6.35
2023-03-05T16:03:40.078Z,6.32
2023-03-05T16:06:27.184Z,6.27
2023-03-05T16:09:13.582Z,6.23
2023-03-05T16:11:59.461Z,6.12
2023-03-05T16:14:45.330Z,6.09
2023-03-05T16:17:31.126Z,5.84
2023-03-05T16:20:16.956Z,5.86
2023-03-05T16:23:04.619Z,5.80
2023-03-05T16:25:50.609Z,5.73
2023-03-05T16:28:36.681Z,5.73
2023-03-05T16:31:22.675Z,5.68
2023-03-05T16:34:08.929Z,5.66
2023-03-05T16:36:54.799Z,5.60
2023-03-05T16:39:42.557Z,5.59
2023-03-05T16:42:28.565Z,5.56
2023-03-05T16:45:14.959Z,5.46
2023-03-05T16:48:01.192Z,5.40
2023-03-05T16:50:47.407Z,5.43
2023-03-05T16:53:33.354Z,5.33
2023-03-05T16:56:20.599Z,5.21
2023-03-05T16:59:06.394Z,5.17
2023-03-05T17:01:52.343Z,5.13
2023-03-05T17:04:38.078Z,5.10
2023-03-05T17:07:25.335Z,5.03
2023-03-05T17:10:12.110Z,4.97
2023-03-05T17:12:59.327Z,4.96
2023-03-05T17:15:45.341Z,4.82
2023-03-05T17:18:31.727Z,4.80
2023-03-05T17:21:17.685Z,4.76
2023-03-05T17:24:03.754Z,4.74
2023-03-05T17:26:49.891Z,4.67
2023-03-05T17:29:37.245Z,4.65
2023-03-05T17:32:23.245Z,4.63
2023-03-05T17:35:12.147Z,4.54
2023-03-05T17:37:57.771Z,4.53
2023-03-05T17:40:43.488Z,4.50
2023-03-05T17:43:29.477Z,4.41
2023-03-05T17:46:16.814Z,4.35
2023-03-05T17:49:02.920Z,4.30
2023-03-05T17:51:48.769Z,4.28
2023-03-05T17:54:34.598Z,4.18
2023-03-05T17:57:20.347Z,4.15
2023-03-05T18:00:06.815Z,4.13
2023-03-05T18:02:59.793Z,4.06
2023-03-05T18:05:45.871Z,4.01
2023-03-05T18:08:31.673Z,3.99
2023-03-05T18:11:17.658Z,3.94
2023-03-05T18:14:03.405Z,3.86
2023-03-05T18:16:50.092Z,3.85
2023-03-05T18:19:37.464Z,3.81
2023-03-05T18:22:23.540Z,3.73
2023-03-05T18:25:11.270Z,3.65
2023-03-05T18:27:57.567Z,3.61
2023-03-05T18:30:44.115Z,3.63
2023-03-05T18:33:30.221Z,3.59
2023-03-05T18:36:17.369Z,3.55
2023-03-05T18:39:04.052Z,3.55
2023-03-05T18:41:49.727Z,3.49
2023-03-05T18:44:35.574Z,3.46
2023-03-05T18:47:21.237Z,3.47
2023-03-05T18:50:07.557Z,3.41
2023-03-05T18:52:54.617Z,3.39
2023-03-05T18:55:42.634Z,3.42
2023-03-05T18:58:28.422Z,3.39
2023-03-05T19:01:14.553Z,3.33
2023-03-05T19:04:00.535Z,3.36
2023-03-05T19:06:46.217Z,3.34
2023-03-05T19:09:48.788Z,3.34
2023-03-05T19:12:37.331Z,3.30
2023-03-05T19:15:23.379Z,3.30
2023-03-05T19:18:09.105Z,3.26
2023-03-05T19:20:55.392Z,3.25
2023-03-05T19:23:41.400Z,3.22
2023-03-05T19:26:28.541Z,3.20
2023-03-05T19:29:14.186Z,3.17
2023-03-05T19:31:59.890Z,3.14
2023-03-05T19:34:45.777Z,3.09
2023-03-05T19:37:31.780Z,3.09
2023-03-05T19:40:17.696Z,3.06
2023-03-05T19:43:05.566Z,3.03
2023-03-05T19:45:51.903Z,3.05
2023-03-05T19:48:38.008Z,3.07
2023-03-05T19:51:25.088Z,3.03
2023-03-05T19:54:10.894Z,3.04
2023-03-05T19:56:56.615Z,2.99
2023-03-05T19:59:46.005Z,3.01
2023-03-05T20:02:33.237Z,3.00
2023-03-05T20:05:22.883Z,2.97
2023-03-05T20:08:08.939Z,2.97
2023-03-05T20:10:54.792Z,2.96
2023-03-05T20:13:41.123Z,2.94
2023-03-05T20:16:29.569Z,2.94
2023-03-05T20:19:17.014Z,2.89
2023-03-05T20:22:02.847Z,2.89
2023-03-05T20:24:48.571Z,2.89
2023-03-05T20:27:34.507Z,2.86
2023-03-05T20:30:20.440Z,2.85
2023-03-05T20:33:08.006Z,2.84
2023-03-05T20:35:56.190Z,2.83
2023-03-05T20:38:42.069Z,2.85
2023-03-05T20:41:28.525Z,2.84
2023-03-05T20:44:16.356Z,2.83
2023-03-05T20:47:15.939Z,2.81
2023-03-05T20:50:03.266Z,2.81
2023-03-05T20:52:49.034Z,2.80
2023-03-05T20:55:34.977Z,2.80
2023-03-05T20:58:20.858Z,2.83
2023-03-05T21:01:07.011Z,2.82
2023-03-05T21:03:53.730Z,2.81
2023-03-05T21:06:40.904Z,2.82
2023-03-05T21:09:28.252Z,2.84
2023-03-05T21:12:14.031Z,2.83
2023-03-05T21:15:00.299Z,2.84
2023-03-05T21:17:46.444Z,2.87
2023-03-05T21:20:32.258Z,2.85
2023-03-05T21:23:19.484Z,2.89
2023-03-05T21:26:05.766Z,2.90
2023-03-05T21:28:52.377Z,2.89
2023-03-05T21:31:41.545Z,2.89
2023-03-05T21:34:27.850Z,2.86
2023-03-05T21:37:14.053Z,2.88
2023-03-05T21:40:01.593Z,2.87
2023-03-05T21:42:49.148Z,2.89
2023-03-05T21:45:36.197Z,2.89
2023-03-05T21:48:28.016Z,2.90
2023-03-05T21:51:16.733Z,2.91
2023-03-05T21:54:02.789Z,2.91
2023-03-05T21:56:49.915Z,2.90
2023-03-05T21:59:36.125Z,2.91
2023-03-05T22:02:22.552Z,2.88
2023-03-05T22:05:09.050Z,2.91
2023-03-05T22:07:56.556Z,2.89
2023-03-05T22:10:42.576Z,2.89
2023-03-05T22:13:29.786Z,2.88
2023-03-05T22:16:21.157Z,2.86
2023-03-05T22:19:07.115Z,2.88
2023-03-05T22:21:53.025Z,2.88
2023-03-05T22:24:39.194Z,2.86
2023-03-05T22:27:25.195Z,2.84
2023-03-05T22:30:13.592Z,2.83
2023-03-05T22:32:59.486Z,2.81
2023-03-05T22:35:45.259Z,2.82
2023-03-05T22:38:31.602Z,2.81
2023-03-05T22:41:19.671Z,2.78
2023-03-05T22:44:05.709Z,2.82
2023-03-05T22:46:53.205Z,2.82
2023-03-05T22:49:38.838Z,2.80
2023-03-05T22:52:24.907Z,2.78
2023-03-05T22:55:11.838Z,2.78
2023-03-05T22:57:57.793Z,2.76
2023-03-05T23:00:43.608Z,2.75
2023-03-05T23:03:30.717Z,2.76
2023-03-05T23:06:16.441Z,2.77
2023-03-05T23:09:02.290Z,2.78
2023-03-05T23:11:48.004Z,2.76
2023-03-05T23:14:33.804Z,2.75
2023-03-05T23:17:19.640Z,2.71
2023-03-05T23:20:10.041Z,2.72
2023-03-05T23:22:56.217Z,2.72
2023-03-05T23:25:42.678Z,2.71
2023-03-05T23:28:28.414Z,2.66
2023-03-05T23:31:14.249Z,2.71
2023-03-05T23:34:00.552Z,2.74
2023-03-05T23:36:47.621Z,2.75
2023-03-05T23:39:33.291Z,2.74
2023-03-05T23:42:19.157Z,2.72
2023-03-05T23:45:05.526Z,2.74
2023-03-05T23:47:52.597Z,2.70
2023-03-05T23:50:39.540Z,2.72
2023-03-05T23:53:28.098Z,2.72
2023-03-05T23:56:14.069Z,2.69
2023-03-05T23:59:01.427Z,2.68
